Time;durP1;ratioP1;P1;durP2;ratioP2;P2;SDS_P1;SDS_P2;PMS_P1;PMS_P2;Temp;Humidity;BMP_temperature;BMP_pressure;BME280_temperature;BME280_humidity;BME280_pressure;Samples;Min_cycle;Max_cycle;Signal;HPM_P1;HPM_P2
2023/08/19 00:00:13;;;;;;;10.15;6.20;;;;;;;23.10;100.00;100740.88;5052402;28;20048;-75
2023/08/19 00:02:39;;;;;;;7.47;6.15;;;;;;;23.01;100.00;100722.50;5052099;28;20029;-74
2023/08/19 00:05:04;;;;;;;9.98;5.68;;;;;;;23.62;100.00;100779.72;5052383;28;20036;-74
2023/08/19 00:07:30;;;;;;;7.40;6.00;;;;;;;23.45;100.00;100771.41;5050965;28;20037;-74
2023/08/19 00:09:55;;;;;;;10.43;6.45;;;;;;;23.05;100.00;100706.63;5051636;28;20033;-73
2023/08/19 00:12:21;;;;;;;8.75;5.65;;;;;;;23.09;100.00;100642.38;5051827;28;20032;-74
2023/08/19 00:14:48;;;;;;;11.05;6.00;;;;;;;23.45;100.00;100728.13;5051791;28;20499;-74
2023/08/19 00:17:13;;;;;;;8.95;6.00;;;;;;;23.53;100.00;100683.44;5051877;28;20071;-75
2023/08/19 00:19:39;;;;;;;8.73;5.40;;;;;;;23.51;100.00;100698.31;5051612;28;20068;-73
2023/08/19 00:22:04;;;;;;;7.28;5.38;;;;;;;23.65;100.00;100696.38;5051737;28;20116;-73
2023/08/19 00:24:29;;;;;;;9.80;5.20;;;;;;;23.31;100.00;100696.22;5051574;28;20048;-74
2023/08/19 00:26:57;;;;;;;7.88;4.88;;;;;;;23.53;100.00;100758.75;5051457;28;20021;-74
2023/08/19 00:29:22;;;;;;;8.35;5.10;;;;;;;23.18;100.00;100702.25;5051602;28;20029;-75
2023/08/19 00:31:48;;;;;;;8.98;5.30;;;;;;;23.29;100.00;100717.09;5051474;28;20052;-74
2023/08/19 00:34:13;;;;;;;9.10;5.50;;;;;;;23.12;100.00;100707.03;5051570;28;20025;-74
2023/08/19 00:36:39;;;;;;;6.07;4.50;;;;;;;23.16;100.00;100687.72;5051260;28;20028;-71
2023/08/19 00:39:04;;;;;;;8.18;5.15;;;;;;;23.19;100.00;100716.06;5051445;28;20411;-75
2023/08/19 00:41:33;;;;;;;7.18;4.53;;;;;;;23.73;100.00;100746.00;5051575;28;20033;-75
2023/08/19 00:43:58;;;;;;;7.00;4.20;;;;;;;23.11;100.00;100662.09;5051593;28;20033;-75
2023/08/19 00:46:24;;;;;;;5.13;4.13;;;;;;;23.52;100.00;100731.09;5051218;28;20098;-74
2023/08/19 00:48:50;;;;;;;7.80;4.70;;;;;;;23.34;100.00;100712.44;5051271;28;20028;-75
2023/08/19 00:51:17;;;;;;;6.47;4.63;;;;;;;23.36;100.00;100714.91;5051499;28;20025;-75
2023/08/19 00:53:43;;;;;;;7.55;4.40;;;;;;;23.43;100.00;100704.03;5051100;28;20032;-73
2023/08/19 00:56:09;;;;;;;5.22;4.20;;;;;;;23.31;100.00;100696.22;5051471;28;20025;-75
2023/08/19 00:58:34;;;;;;;5.55;4.30;;;;;;;22.78;100.00;100642.81;5051311;28;20411;-74
2023/08/19 01:01:00;;;;;;;7.57;4.32;;;;;;;23.09;100.00;100663.13;5051182;28;20029;-74
2023/08/19 01:03:25;;;;;;;5.15;4.53;;;;;;;23.06;100.00;100665.91;5051235;28;20048;-73
2023/08/19 01:06:20;;;;;;;6.72;4.50;;;;;;;23.39;100.00;100743.28;5050861;28;20098;-74
2023/08/19 01:09:04;;;;;;;5.47;3.88;;;;;;;23.45;100.00;100740.25;5051262;28;20072;-75
2023/08/19 01:11:47;;;;;;;6.53;4.05;;;;;;;23.59;100.00;100729.75;5053097;28;20567;-75
2023/08/19 01:14:43;;;;;;;7.43;4.40;;;;;;;23.95;100.00;100740.97;5055134;28;20021;-72
2023/08/19 01:17:13;;;;;;;6.00;4.25;;;;;;;23.69;100.00;100764.53;5055344;28;20567;-74
2023/08/19 01:19:41;;;;;;;6.07;4.38;;;;;;;23.47;100.00;100715.88;5055096;28;20036;-74
2023/08/19 01:22:08;;;;;;;6.28;4.20;;;;;;;23.34;100.00;100720.22;5054869;28;20061;-73
2023/08/19 01:24:40;;;;;;;6.70;4.30;;;;;;;23.41;100.00;100705.91;5054990;28;20031;-74
2023/08/19 01:27:22;;;;;;;6.97;4.43;;;;;;;23.16;100.00;100718.84;5054411;28;20099;-73
2023/08/19 01:29:48;;;;;;;7.25;4.40;;;;;;;22.79;100.00;100683.38;5054881;28;20075;-74
2023/08/19 01:32:14;;;;;;;5.88;4.32;;;;;;;23.06;100.00;100728.19;5054873;28;20029;-72
2023/08/19 01:34:40;;;;;;;8.02;4.32;;;;;;;22.87;100.00;100718.25;5054594;28;20041;-73
2023/08/19 01:37:11;;;;;;;5.22;4.53;;;;;;;23.19;100.00;100755.81;5036862;28;20121;-74
2023/08/19 01:39:37;;;;;;;;;;;;;;;23.04;100.00;100785.38;5054861;28;20094;-73
2023/08/19 01:42:04;;;;;;;7.47;4.57;;;;;;;22.88;100.00;100709.50;5054679;28;19912;-73
2023/08/19 01:44:31;;;;;;;5.35;4.35;;;;;;;22.89;100.00;100712.94;5054810;28;20025;-72
2023/08/19 01:46:56;;;;;;;5.70;4.80;;;;;;;23.36;100.00;100782.41;5054567;28;20060;-73
2023/08/19 01:49:22;;;;;;;6.20;4.13;;;;;;;22.86;100.00;100671.63;5054694;28;20519;-73
2023/08/19 01:51:48;;;;;;;5.35;4.40;;;;;;;23.36;100.00;100788.44;5054462;28;20503;-72
2023/08/19 01:54:14;;;;;;;6.30;4.65;;;;;;;23.45;100.00;100781.81;5054591;28;20032;-74
2023/08/19 01:56:39;;;;;;;5.72;4.30;;;;;;;23.31;100.00;100745.53;5054294;28;20399;-72
2023/08/19 01:59:05;;;;;;;5.25;4.60;;;;;;;23.53;100.00;100788.13;5036851;28;20029;-74
2023/08/19 02:01:30;;;;;;;7.38;4.65;;;;;;;23.24;100.00;100732.13;5054015;28;20033;-73
2023/08/19 02:03:55;;;;;;;4.70;4.22;;;;;;;23.06;100.00;100730.78;5053915;28;20096;-74
2023/08/19 02:06:21;;;;;;;6.32;4.45;;;;;;;23.06;100.00;100751.53;5054298;28;20021;-74
2023/08/19 02:08:46;;;;;;;5.82;4.40;;;;;;;23.40;100.00;100792.50;5054096;28;20431;-73
2023/08/19 02:11:11;;;;;;;6.57;4.47;;;;;;;23.51;100.00;100786.59;5054285;28;20111;-74
2023/08/19 02:13:37;;;;;;;8.10;4.40;;;;;;;23.20;100.00;100787.78;5054148;28;20041;-74
2023/08/19 02:16:02;;;;;;;6.70;4.70;;;;;;;22.99;100.00;100735.56;5054140;28;20029;-73
2023/08/19 02:18:28;;;;;;;6.53;4.47;;;;;;;23.01;100.00;100745.84;5054059;28;20171;-74
2023/08/19 02:20:54;;;;;;;5.95;4.43;;;;;;;23.29;100.00;100764.63;5036354;28;20040;-75
2023/08/19 02:23:19;;;;;;;5.68;4.40;;;;;;;23.24;100.00;100790.06;5052822;28;20044;-74
2023/08/19 02:25:45;;;;;;;6.00;4.85;;;;;;;23.41;100.00;100776.00;5054203;28;20514;-74
2023/08/19 02:28:10;;;;;;;8.63;4.55;;;;;;;23.79;100.00;100792.34;5053945;28;20028;-74
2023/08/19 02:30:35;;;;;;;6.20;4.82;;;;;;;23.65;100.00;100792.47;5036144;28;20479;-74
2023/08/19 02:33:06;;;;;;;7.07;4.50;;;;;;;23.27;100.00;100731.94;5053926;28;20025;-74
2023/08/19 02:35:31;;;;;;;5.75;4.70;;;;;;;22.95;100.00;100743.66;5053632;28;20029;-74
2023/08/19 02:37:56;;;;;;;6.18;4.18;;;;;;;23.08;100.00;100737.53;5053409;28;20483;-74
2023/08/19 02:40:22;;;;;;;8.73;5.25;;;;;;;22.61;100.00;100736.44;5053821;28;20039;-74
2023/08/19 02:42:48;;;;;;;7.32;4.65;;;;;;;23.19;100.00;100791.31;5036147;28;20104;-70
2023/08/19 02:45:13;;;;;;;8.10;5.30;;;;;;;23.07;100.00;100712.53;5036075;28;20037;-73
2023/08/19 02:47:39;;;;;;;6.07;4.50;;;;;;;23.08;100.00;100719.38;5035454;28;20037;-75
2023/08/19 02:50:05;;;;;;;7.43;4.88;;;;;;;22.91;100.00;100674.75;5063135;28;20063;-74
2023/08/19 02:52:30;;;;;;;6.05;4.85;;;;;;;23.09;100.00;100774.72;5059802;28;20036;-75
2023/08/19 02:54:56;;;;;;;7.97;4.82;;;;;;;22.96;100.00;100768.66;5053500;28;20025;-75
2023/08/19 02:57:22;;;;;;;6.10;4.80;;;;;;;23.26;100.00;100753.63;5035601;28;20566;-75
2023/08/19 02:59:48;;;;;;;7.75;4.57;;;;;;;23.34;100.00;100760.91;5052995;28;20029;-74
2023/08/19 03:02:13;;;;;;;8.18;4.75;;;;;;;23.02;100.00;100773.44;5053322;28;20031;-74
2023/08/19 03:04:38;;;;;;;9.77;4.68;;;;;;;22.55;100.00;100705.69;5053214;28;20028;-74
2023/08/19 03:07:04;;;;;;;6.43;4.70;;;;;;;22.90;100.00;100743.13;5052805;28;20036;-72
2023/08/19 03:09:29;;;;;;;5.82;4.93;;;;;;;22.85;100.00;100745.19;5053006;28;20041;-74
2023/08/19 03:11:55;;;;;;;6.05;5.03;;;;;;;22.57;100.00;100659.75;5052833;28;20075;-73
2023/08/19 03:14:20;;;;;;;6.07;4.93;;;;;;;22.68;100.00;100704.00;5053103;28;20091;-69
2023/08/19 03:16:46;;;;;;;5.30;4.80;;;;;;;22.77;100.00;100690.41;5053236;28;20025;-74
2023/08/19 03:19:11;;;;;;;5.38;4.88;;;;;;;23.22;100.00;100765.16;5052549;28;20033;-74
2023/08/19 03:21:36;;;;;;;5.97;4.90;;;;;;;22.90;100.00;100696.44;5052126;28;20025;-71
2023/08/19 03:24:02;;;;;;;6.65;4.72;;;;;;;22.96;100.00;100696.03;5052652;28;20025;-75
2023/08/19 03:26:27;;;;;;;8.95;4.93;;;;;;;22.74;100.00;100659.50;5052233;28;20032;-75
2023/08/19 03:28:53;;;;;;;6.50;4.88;;;;;;;23.45;100.00;100767.06;5034401;28;20555;-75
2023/08/19 03:31:19;;;;;;;5.63;4.43;;;;;;;23.17;100.00;100707.56;5035216;28;20028;-75
2023/08/19 03:33:44;;;;;;;5.35;4.68;;;;;;;23.36;100.00;100756.47;5052422;28;20059;-75
2023/08/19 03:36:10;;;;;;;7.40;5.00;;;;;;;23.34;100.00;100734.97;5052426;28;20462;-75
2023/08/19 03:38:36;;;;;;;8.63;4.80;;;;;;;22.92;100.00;100679.00;5052346;28;20404;-75
2023/08/19 03:41:01;;;;;;;5.55;5.00;;;;;;;23.18;100.00;100683.25;5052983;28;20040;-73
2023/08/19 03:43:26;;;;;;;10.73;4.90;;;;;;;23.11;100.00;100674.22;5052610;28;20093;-73
2023/08/19 03:45:52;;;;;;;8.60;5.00;;;;;;;23.31;100.00;100758.50;5052685;28;20071;-75
2023/08/19 03:48:17;;;;;;;9.65;4.90;;;;;;;23.11;100.00;100680.25;5052636;28;20033;-74
2023/08/19 03:50:43;;;;;;;7.47;5.00;;;;;;;23.18;100.00;100711.78;5052456;28;20037;-74
2023/08/19 03:53:08;;;;;;;7.20;5.25;;;;;;;23.41;100.00;100726.66;5051989;28;20485;-75
2023/08/19 03:55:33;;;;;;;9.02;4.70;;;;;;;23.30;100.00;100669.44;5064373;28;20123;-75
2023/08/19 03:57:59;;;;;;;7.15;4.60;;;;;;;23.25;100.00;100736.41;5039368;28;20473;-74
2023/08/19 04:00:24;;;;;;;8.15;4.43;;;;;;;23.24;100.00;100737.31;5054476;28;20029;-74
2023/08/19 04:02:50;;;;;;;6.68;5.07;;;;;;;23.27;100.00;100719.78;5072371;28;20072;-75
2023/08/19 04:05:15;;;;;;;5.95;5.10;;;;;;;23.06;100.00;100715.22;5072082;28;20024;-73
2023/08/19 04:07:41;;;;;;;6.80;4.63;;;;;;;22.82;100.00;100644.28;5054122;28;20052;-75
2023/08/19 04:10:08;;;;;;;5.35;4.78;;;;;;;23.33;100.00;100695.22;5072186;28;20477;-75
2023/08/19 04:12:33;;;;;;;7.55;4.65;;;;;;;23.11;100.00;100637.91;5072218;28;20122;-75
2023/08/19 04:14:58;;;;;;;5.72;4.32;;;;;;;23.31;100.00;100632.19;5054141;28;20475;-75
2023/08/19 04:17:24;;;;;;;6.13;4.45;;;;;;;23.75;100.00;100678.41;5054240;28;20024;-74
2023/08/19 04:19:50;;;;;;;5.80;4.32;;;;;;;23.54;100.00;100631.41;5071947;28;20037;-76
2023/08/19 04:22:16;;;;;;;6.35;4.90;;;;;;;23.88;100.00;100677.41;5072371;28;20035;-76
2023/08/19 04:24:42;;;;;;;6.65;4.68;;;;;;;24.07;100.00;100682.97;5071600;28;20450;-76
2023/08/19 04:27:07;;;;;;;7.03;4.28;;;;;;;23.77;100.00;100632.38;5071975;28;20043;-74
2023/08/19 04:29:33;;;;;;;7.63;4.43;;;;;;;24.37;100.00;100686.84;5071596;28;20036;-75
2023/08/19 04:32:02;;;;;;;7.53;4.60;;;;;;;24.23;100.00;100620.28;5072083;28;20032;-75
2023/08/19 04:34:28;;;;;;;15.98;11.15;;;;;;;24.30;100.00;100626.69;5049935;28;20028;-72
2023/08/19 04:36:55;;;;;;;14.80;10.35;;;;;;;24.00;100.00;100588.19;5072297;28;20035;-74
2023/08/19 04:39:21;;;;;;;14.18;8.30;;;;;;;24.64;100.00;100661.41;5060401;28;20032;-76
2023/08/19 04:41:46;;;;;;;16.60;10.40;;;;;;;24.67;100.00;100695.81;5051119;28;20033;-75
2023/08/19 04:44:12;;;;;;;14.55;9.30;;;;;;;24.43;100.00;100643.03;5051257;28;20029;-74
2023/08/19 04:46:37;;;;;;;9.45;7.00;;;;;;;24.45;100.00;100726.97;5033278;28;20025;-75
2023/08/19 04:49:03;;;;;;;7.85;5.90;;;;;;;24.32;100.00;100725.38;5050757;28;20424;-74
2023/08/19 04:51:28;;;;;;;10.40;5.80;;;;;;;24.28;100.00;100658.94;5051342;28;20033;-74
2023/08/19 04:53:54;;;;;;;8.25;5.32;;;;;;;;;;5050837;28;20029;-74
2023/08/19 04:56:19;;;;;;;10.77;5.75;;;;;;;24.06;100.00;100681.31;5051344;28;20025;-73
2023/08/19 04:58:45;;;;;;;13.07;5.93;;;;;;;24.38;100.00;100732.72;5051134;28;20495;-73
2023/08/19 05:01:10;;;;;;;10.32;5.82;;;;;;;24.15;100.00;100666.78;5051151;28;20117;-75
2023/08/19 05:03:35;;;;;;;8.25;5.45;;;;;;;24.57;100.00;100738.22;5050962;28;20036;-74
2023/08/19 05:06:01;;;;;;;8.32;5.07;;;;;;;23.76;100.00;100641.91;5050816;28;20116;-74
2023/08/19 05:08:26;;;;;;;9.05;5.30;;;;;;;24.72;100.00;100703.28;5051076;28;20053;-74
2023/08/19 05:10:52;;;;;;;10.77;5.47;;;;;;;24.64;100.00;100662.22;5033587;28;20021;-75
2023/08/19 05:13:18;;;;;;;8.98;5.00;;;;;;;24.72;100.00;100656.47;5051534;28;20106;-74
2023/08/19 05:15:43;;;;;;;7.40;5.40;;;;;;;24.87;100.00;100661.34;5051602;28;20045;-75
2023/08/19 05:18:09;;;;;;;7.80;5.40;;;;;;;24.89;100.00;100654.25;5051507;28;20036;-74
2023/08/19 05:20:34;;;;;;;7.82;5.30;;;;;;;25.23;100.00;100714.16;5050731;28;20438;-76
2023/08/19 05:23:00;;;;;;;7.72;5.50;;;;;;;24.87;100.00;100652.72;5051054;28;20029;-72
2023/08/19 05:25:25;;;;;;;11.38;5.60;;;;;;;25.27;100.00;100721.59;5051045;28;20098;-75
2023/08/19 05:27:51;;;;;;;9.38;5.43;;;;;;;25.18;100.00;100708.44;5054826;28;20028;-76
2023/08/19 05:30:16;;;;;;;9.40;6.00;;;;;;;25.42;100.00;100715.22;5060529;28;20025;-74
2023/08/19 05:32:41;;;;;;;9.07;5.75;;;;;;;25.21;100.00;100599.72;5061795;28;20407;-76
2023/08/19 05:35:07;;;;;;;9.40;5.72;;;;;;;26.08;100.00;100670.00;5052796;28;20124;-76
2023/08/19 05:37:33;;;;;;;8.40;5.57;;;;;;;25.98;100.00;100634.34;5066309;28;20036;-74
2023/08/19 05:39:59;;;;;;;8.55;5.88;;;;;;;26.27;100.00;100679.75;5064412;28;20024;-73
2023/08/19 05:42:24;;;;;;;9.77;6.03;;;;;;;26.48;100.00;100662.34;5070760;28;20025;-74
2023/08/19 05:44:50;;;;;;;17.90;5.95;;;;;;;26.79;100.00;100651.00;5071184;28;20032;-75
2023/08/19 05:47:15;;;;;;;12.57;8.57;;;;;;;27.19;100.00;100633.59;5041636;28;20403;-74
2023/08/19 05:49:41;;;;;;;24.08;10.90;;;;;;;27.20;100.00;100584.78;5068882;28;20031;-74
2023/08/19 05:52:06;;;;;;;14.25;9.55;;;;;;;27.30;100.00;100593.47;5051288;28;20021;-77
2023/08/19 05:54:31;;;;;;;12.55;9.55;;;;;;;27.81;100.00;100637.75;5047729;28;20028;-76
2023/08/19 05:56:57;;;;;;;11.20;6.68;;;;;;;27.35;100.00;100609.63;5054004;28;20032;-75
2023/08/19 05:59:22;;;;;;;10.25;6.60;;;;;;;27.61;100.00;100581.19;5056150;28;20117;-74
2023/08/19 06:01:48;;;;;;;8.85;5.43;;;;;;;27.60;100.00;100644.84;5055158;28;20035;-76
2023/08/19 06:04:15;;;;;;;7.32;5.32;;;;;;;27.40;100.00;100578.66;5073939;28;20029;-75
2023/08/19 06:06:41;;;;;;;7.45;4.60;;;;;;;27.17;100.00;100619.84;5056342;28;20048;-75
2023/08/19 06:09:07;;;;;;;7.15;4.32;;;;;;;27.14;100.00;100614.03;5077966;28;20507;-76
2023/08/19 06:11:32;;;;;;;5.95;4.47;;;;;;;27.10;100.00;100603.03;5079379;28;20419;-76
2023/08/19 06:13:58;;;;;;;6.32;4.18;;;;;;;26.81;100.00;100573.41;5075398;28;20033;-77
2023/08/19 06:16:23;;;;;;;7.25;4.70;;;;;;;27.29;100.00;100642.28;5056411;28;20028;-77
2023/08/19 06:18:49;;;;;;;8.43;4.60;;;;;;;27.47;100.00;100666.03;5073673;28;20032;-76
2023/08/19 06:21:14;;;;;;;6.85;4.47;;;;;;;27.21;100.00;100605.56;5055907;28;20028;-74
2023/08/19 06:23:40;;;;;;;6.88;4.65;;;;;;;27.57;100.00;100642.53;5073200;28;20478;-75
2023/08/19 06:26:05;;;;;;;8.68;4.22;;;;;;;27.48;100.00;100580.59;5073736;28;20162;-74
2023/08/19 06:28:31;;;;;;;7.75;4.50;;;;;;;28.07;100.00;100686.78;5073745;28;20041;-73
2023/08/19 06:30:57;;;;;;;7.93;4.50;;;;;;;27.96;100.00;100633.78;5073794;28;20558;-77
2023/08/19 06:33:22;;;;;;;8.45;4.53;;;;;;;27.91;100.00;100625.50;5072463;28;20035;-73
2023/08/19 06:35:49;;;;;;;6.25;4.70;;;;;;;27.72;100.00;100612.41;5073142;28;20094;-74
2023/08/19 06:38:15;;;;;;;8.07;4.65;;;;;;;27.98;100.00;100658.00;5072985;28;20071;-74
2023/08/19 06:41:00;;;;;;;9.27;5.03;;;;;;;27.56;100.00;100649.53;5072946;28;20158;-74
2023/08/19 06:43:27;;;;;;;7.38;4.60;;;;;;;27.45;100.00;100670.56;5073034;28;20445;-72
2023/08/19 06:45:54;;;;;;;6.63;4.47;;;;;;;27.13;100.00;100623.69;5054340;28;20029;-75
2023/08/19 06:48:22;;;;;;;7.35;4.40;;;;;;;27.23;100.00;100624.53;5073376;28;20457;-75
2023/08/19 06:50:48;;;;;;;8.88;4.70;;;;;;;27.17;100.00;100622.47;5073077;28;20024;-73
2023/08/19 06:53:14;;;;;;;7.93;4.57;;;;;;;27.24;100.00;100615.72;5073250;28;20021;-73
2023/08/19 06:55:41;;;;;;;8.25;4.57;;;;;;;27.47;100.00;100671.25;5072517;28;20028;-72
2023/08/19 06:58:14;;;;;;;8.88;5.03;;;;;;;27.65;100.00;100715.88;5071966;28;20436;-72
2023/08/19 07:00:43;;;;;;;6.43;4.75;;;;;;;27.62;100.00;100697.81;5072429;28;20044;-73
2023/08/19 07:03:10;;;;;;;8.13;3.97;;;;;;;27.55;100.00;100673.19;5072309;28;20032;-73
2023/08/19 07:05:36;;;;;;;8.05;4.32;;;;;;;27.73;100.00;100729.09;5071906;28;20037;-72
2023/08/19 07:08:06;;;;;;;7.47;4.70;;;;;;;27.37;100.00;100688.69;5063447;28;20048;-73
2023/08/19 07:10:32;;;;;;;11.90;4.82;;;;;;;27.69;100.00;100732.94;5052394;28;20029;-72
2023/08/19 07:12:58;;;;;;;7.45;4.95;;;;;;;27.73;100.00;100732.50;5052599;28;20458;-73
2023/08/19 07:15:23;;;;;;;7.53;5.53;;;;;;;27.45;100.00;100681.81;5052973;28;20043;-73
2023/08/19 07:17:54;;;;;;;8.32;4.40;;;;;;;27.87;100.00;100711.22;5051756;28;20415;-73
2023/08/19 07:20:23;;;;;;;9.65;5.47;;;;;;;27.83;100.00;100665.38;5052068;28;20043;-73
2023/08/19 07:22:51;;;;;;;7.65;5.10;;;;;;;28.19;100.00;100706.59;5051790;28;20087;-73
2023/08/19 07:25:17;;;;;;;9.27;4.82;;;;;;;28.08;100.00;100674.53;5051437;28;20068;-73
2023/08/19 07:27:43;;;;;;;7.68;4.20;;;;;;;28.12;100.00;100687.19;5051241;28;20064;-73
2023/08/19 07:30:10;;;;;;;10.48;5.25;;;;;;;27.78;100.00;100628.38;5034361;28;20110;-73
2023/08/19 07:32:36;;;;;;;9.38;4.40;;;;;;;27.91;100.00;100649.03;5051263;28;20029;-73
2023/08/19 07:35:05;;;;;;;5.45;4.53;;;;;;;28.39;100.00;100680.41;5052198;28;20025;-72
2023/08/19 07:37:31;;;;;;;8.05;4.32;;;;;;;27.94;100.00;100601.69;5049083;28;20094;-74
2023/08/19 07:39:57;;;;;;;8.60;4.22;;;;;;;28.62;100.00;100680.03;5052157;28;20043;-73
2023/08/19 07:42:24;;;;;;;6.13;3.90;;;;;;;28.70;100.00;100681.94;5052138;28;20299;-73
2023/08/19 07:44:49;;;;;;;8.38;3.70;;;;;;;28.80;100.00;100651.31;5052367;28;20130;-75
2023/08/19 07:47:15;;;;;;;5.10;3.55;;;;;;;28.85;100.00;100654.31;5052080;28;20581;-74
2023/08/19 07:49:40;;;;;;;5.10;3.50;;;;;;;28.90;100.00;100631.97;5052229;28;20024;-75
2023/08/19 07:52:06;;;;;;;6.90;4.43;;;;;;;28.79;100.00;100626.09;5052045;28;20029;-73
2023/08/19 07:54:32;;;;;;;6.45;4.22;;;;;;;29.03;100.00;100608.91;5033819;28;20044;-73
2023/08/19 07:56:58;;;;;;;9.55;4.60;;;;;;;29.29;100.00;100656.25;5051465;28;20025;-73
2023/08/19 07:59:25;;;;;;;6.32;4.63;;;;;;;29.16;100.00;100652.31;5033992;28;20442;-72
2023/08/19 08:01:50;;;;;;;6.18;4.88;;;;;;;28.98;100.00;100657.44;5033734;28;20036;-73
2023/08/19 08:04:16;;;;;;;5.88;5.05;;;;;;;28.89;100.00;100613.78;5033912;28;20032;-73
2023/08/19 08:06:42;;;;;;;7.00;4.97;;;;;;;29.55;100.00;100658.97;5033636;28;20036;-72
2023/08/19 08:09:07;;;;;;;7.75;4.95;;;;;;;29.81;100.00;100583.88;5033590;28;20045;-75
2023/08/19 08:11:33;;;;;;;7.35;5.05;;;;;;;30.62;100.00;100617.59;5051311;28;20469;-73
2023/08/19 08:13:58;;;;;;;5.85;5.13;;;;;;;30.54;100.00;100633.34;5051580;28;20488;-73
2023/08/19 08:16:24;;;;;;;9.02;5.40;;;;;;;29.85;100.00;100656.84;5034139;28;20033;-74
2023/08/19 08:18:49;;;;;;;7.72;5.07;;;;;;;29.38;100.00;100578.50;5051956;28;20403;-73
2023/08/19 08:21:15;;;;;;;8.23;5.50;;;;;;;29.87;100.00;100578.03;5050853;28;20131;-76
2023/08/19 08:23:41;;;;;;;8.00;5.47;;;;;;;30.88;100.00;100650.97;5052129;28;20021;-74
2023/08/19 08:26:06;;;;;;;6.55;5.15;;;;;;;30.37;100.00;100588.72;5051346;28;20415;-75
2023/08/19 08:28:32;;;;;;;7.38;5.35;;;;;;;31.08;100.00;100649.75;5051031;28;20037;-75
2023/08/19 08:30:58;;;;;;;8.30;5.35;;;;;;;31.69;100.00;100620.53;5032912;28;20037;-74
2023/08/19 08:33:25;;;;;;;6.35;5.28;;;;;;;31.38;100.00;100581.66;5051062;28;20037;-74
2023/08/19 08:35:51;;;;;;;6.72;4.97;;;;;;;30.66;100.00;100615.53;5033194;28;20098;-74
2023/08/19 08:38:16;;;;;;;9.15;5.20;;;;;;;31.00;100.00;100611.09;5032976;28;20025;-74
2023/08/19 08:40:42;;;;;;;6.78;5.82;;;;;;;30.99;100.00;100609.47;5032548;28;20029;-74
2023/08/19 08:43:07;;;;;;;6.43;5.80;;;;;;;31.78;100.00;100625.63;5051209;28;20559;-74
2023/08/19 08:45:33;;;;;;;6.68;5.38;;;;;;;31.27;100.00;100637.16;5033404;28;20037;-75
2023/08/19 08:48:02;;;;;;;6.57;5.30;;;;;;;31.52;100.00;100638.06;5050918;28;20470;-75
2023/08/19 08:50:27;;;;;;;8.70;5.57;;;;;;;32.19;100.00;100593.06;5051228;28;20530;-75
2023/08/19 08:52:55;;;;;;;10.60;5.68;;;;;;;32.08;100.00;100600.50;5050784;28;20056;-75
2023/08/19 08:55:20;;;;;;;13.07;5.70;;;;;;;31.64;100.00;100594.69;5050638;28;20028;-75
2023/08/19 08:57:45;;;;;;;11.75;6.18;;;;;;;31.84;100.00;100564.44;5033422;28;20025;-75
2023/08/19 09:00:12;;;;;;;9.25;5.45;;;;;;;31.48;100.00;100566.56;5050698;28;20470;-75
2023/08/19 09:02:40;;;;;;;8.32;5.60;;;;;;;32.07;100.00;100599.66;5033021;28;20483;-74
2023/08/19 09:05:06;;;;;;;8.55;5.50;;;;;;;30.97;100.00;100550.16;5033013;28;20032;-75
2023/08/19 09:07:38;;;;;;;9.02;4.88;;;;;;;31.43;100.00;100550.47;5050243;28;20116;-72
2023/08/19 09:10:08;;;;;;;5.90;5.15;;;;;;;32.26;100.00;100516.88;5050230;28;20048;-71
2023/08/19 09:12:34;;;;;;;7.05;5.03;;;;;;;32.20;100.00;100544.72;5032216;28;20043;-73
2023/08/19 09:15:04;;;;;;;7.75;5.10;;;;;;;31.91;100.00;100548.84;5050098;28;20067;-72
2023/08/19 09:17:32;;;;;;;5.57;5.05;;;;;;;32.37;100.00;100567.38;5032107;28;20149;-71
2023/08/19 09:19:57;;;;;;;6.15;4.97;;;;;;;32.22;100.00;100516.41;5050037;28;20123;-72
2023/08/19 09:22:23;;;;;;;7.72;5.20;;;;;;;31.88;100.00;100572.81;5049610;28;20108;-70
2023/08/19 09:24:49;;;;;;;7.75;5.10;;;;;;;32.77;100.00;100555.91;5048990;28;20021;-70
2023/08/19 09:27:46;;;;;;;5.78;5.03;;;;;;;32.78;100.00;100560.19;5050075;28;20036;-70
2023/08/19 09:30:16;;;;;;;6.55;4.65;;;;;;;32.21;100.00;100548.13;5022819;28;20040;-70
2023/08/19 09:32:44;;;;;;;5.70;4.70;;;;;;;32.17;100.00;100555.56;5054247;28;20032;-71
2023/08/19 09:35:12;;;;;;;5.55;4.70;;;;;;;32.69;100.00;100531.38;4698979;28;10000565;-71
2023/08/19 09:37:38;;;;;;;9.30;5.05;;;;;;;32.02;100.00;100504.59;5050204;28;20734;-72
2023/08/19 09:40:12;;;;;;;7.47;4.60;;;;;;;32.45;100.00;100534.94;5050703;28;20040;-70
2023/08/19 09:42:38;;;;;;;6.03;4.60;;;;;;;33.25;100.00;100481.84;5050649;28;20060;-69
2023/08/19 09:45:05;;;;;;;7.32;4.70;;;;;;;33.68;100.00;100463.69;5050739;28;20037;-70
2023/08/19 09:47:44;;;;;;;7.15;4.63;;;;;;;32.96;100.00;100517.75;5032283;28;20028;-71
2023/08/19 09:50:09;;;;;;;5.80;4.38;;;;;;;33.68;100.00;100504.09;5051038;28;20037;-71
2023/08/19 09:52:35;;;;;;;7.00;5.00;;;;;;;32.79;100.00;100490.66;5053059;28;20074;-73
2023/08/19 09:55:00;;;;;;;9.23;4.53;;;;;;;33.44;100.00;100466.53;5059775;28;20033;-72
2023/08/19 09:57:33;;;;;;;6.57;4.40;;;;;;;33.24;100.00;100540.00;5050733;28;20032;-72
2023/08/19 10:00:01;;;;;;;7.57;4.75;;;;;;;33.80;100.00;100501.84;5050150;28;20086;-71
2023/08/19 10:02:28;;;;;;;8.05;5.03;;;;;;;33.02;100.00;100536.34;5052026;28;20044;-74
2023/08/19 10:04:56;;;;;;;7.85;4.95;;;;;;;33.07;100.00;100536.66;5062336;28;20055;-71
2023/08/19 10:07:30;;;;;;;7.00;4.47;;;;;;;33.24;100.00;100534.72;5049448;28;20469;-71
2023/08/19 10:09:58;;;;;;;7.22;4.95;;;;;;;33.01;100.00;100491.72;5053987;28;20135;-73
2023/08/19 10:12:25;;;;;;;8.93;5.47;;;;;;;33.75;100.00;100525.31;5069735;28;20038;-72
2023/08/19 10:14:56;;;;;;;4.93;4.20;;;;;;;33.86;100.00;100482.63;5070396;28;20050;-69
2023/08/19 10:17:23;;;;;;;7.22;4.60;;;;;;;34.20;100.00;100450.44;5052558;28;20033;-74
2023/08/19 10:19:56;;;;;;;7.50;4.40;;;;;;;33.85;100.00;100508.22;5070126;28;20131;-69
2023/08/19 10:22:23;;;;;;;4.88;4.38;;;;;;;33.84;100.00;100513.66;5064825;28;20030;-72
2023/08/19 10:24:51;;;;;;;7.32;4.93;;;;;;;33.72;100.00;100525.66;5063255;28;20028;-72
2023/08/19 10:27:17;;;;;;;4.93;4.43;;;;;;;33.66;100.00;100521.09;5070503;28;20030;-73
2023/08/19 10:29:45;;;;;;;6.85;4.85;;;;;;;33.09;100.00;100516.22;5070880;28;20086;-73
2023/08/19 10:32:31;;;;;;;10.30;4.70;;;;;;;33.75;100.00;100515.59;5070306;28;20032;-71
2023/08/19 10:35:09;;;;;;;7.82;4.68;;;;;;;33.14;100.00;100462.97;5058029;28;20033;-71
2023/08/19 10:37:49;;;;;;;7.07;5.20;;;;;;;34.39;100.00;100426.91;5068803;28;20028;-73
2023/08/19 10:40:21;;;;;;;5.13;4.40;;;;;;;34.41;100.00;100479.59;5069939;28;20024;-72
2023/08/19 10:43:00;;;;;;;5.57;4.15;;;;;;;34.31;100.00;100465.84;5069728;28;20044;-72
2023/08/19 10:45:32;;;;;;;5.38;3.97;;;;;;;34.44;100.00;100472.09;5068606;28;20033;-71
2023/08/19 10:47:58;;;;;;;6.43;4.72;;;;;;;34.63;100.00;100445.13;5069068;28;20068;-71
2023/08/19 10:50:27;;;;;;;5.47;4.60;;;;;;;34.34;100.00;100489.25;5069573;28;20060;-70
2023/08/19 10:53:09;;;;;;;5.63;4.82;;;;;;;33.82;100.00;100468.97;5069480;28;20041;-72
2023/08/19 10:55:50;;;;;;;5.45;4.60;;;;;;;33.67;100.00;100472.59;5068508;28;20036;-74
2023/08/19 10:58:17;;;;;;;6.47;4.22;;;;;;;34.00;100.00;100400.84;5069266;28;20671;-72
2023/08/19 11:00:43;;;;;;;10.05;4.60;;;;;;;34.77;100.00;100440.78;5069526;28;20070;-72
2023/08/19 11:03:09;;;;;;;8.32;4.50;;;;;;;34.29;100.00;100466.00;5069302;28;20032;-72
2023/08/19 11:05:35;;;;;;;6.00;4.03;;;;;;;35.23;100.00;100431.50;5065929;28;20489;-72
2023/08/19 11:08:04;;;;;;;9.15;4.20;;;;;;;34.64;100.00;100395.72;5058050;28;20124;-72
2023/08/19 11:10:33;;;;;;;8.47;4.70;;;;;;;33.85;100.00;100417.66;5068602;28;20045;-72
2023/08/19 11:13:00;;;;;;;4.75;4.15;;;;;;;34.19;100.00;100422.41;5069644;28;20036;-74
2023/08/19 11:15:25;;;;;;;6.47;4.28;;;;;;;34.27;100.00;100401.97;5063854;28;20032;-73